createdAt,value
2018-09-02T00:00:48.762Z,85.20
2018-09-02T00:03:16.445Z,85.10
2018-09-02T00:05:44.081Z,85.20
2018-09-02T00:08:11.754Z,85.40
2018-09-02T00:10:39.414Z,85.30
2018-09-02T00:13:07.073Z,85.80
2018-09-02T00:15:34.706Z,86.10
2018-09-02T00:18:02.373Z,86.90
2018-09-02T00:20:30.201Z,86.10
2018-09-02T00:22:57.862Z,86.40
2018-09-02T00:25:25.486Z,86.90
2018-09-02T00:27:53.193Z,87.10
2018-09-02T00:30:21.722Z,87.40
2018-09-02T00:32:49.375Z,87.40
2018-09-02T00:35:17.029Z,87.40
2018-09-02T00:37:44.849Z,87.40
2018-09-02T00:40:13.663Z,88.00
2018-09-02T00:42:41.377Z,88.30
2018-09-02T00:45:10.214Z,88.50
2018-09-02T00:47:37.841Z,88.80
2018-09-02T00:50:06.695Z,89.30
2018-09-02T00:52:34.422Z,89.20
2018-09-02T00:55:02.094Z,89.30
2018-09-02T00:57:29.761Z,89.00
2018-09-02T00:59:57.426Z,89.10
2018-09-02T01:02:25.094Z,89.30
2018-09-02T01:04:52.790Z,89.00
2018-09-02T01:07:20.461Z,89.20
2018-09-02T01:09:48.145Z,89.50
2018-09-02T01:12:16.205Z,89.70
2018-09-02T01:14:44.263Z,89.90
2018-09-02T01:17:11.939Z,90.10
2018-09-02T01:19:39.619Z,89.70
2018-09-02T01:22:07.282Z,89.50
2018-09-02T01:24:37.920Z,90.00
2018-09-02T01:27:05.838Z,90.10
2018-09-02T01:29:33.522Z,90.10
2018-09-02T01:32:01.198Z,90.10
2018-09-02T01:34:29.417Z,90.00
2018-09-02T01:36:57.042Z,90.20
2018-09-02T01:39:24.706Z,90.20
2018-09-02T01:41:52.430Z,90.20
2018-09-02T01:44:20.090Z,90.20
2018-09-02T01:49:29.179Z,90.40
2018-09-02T01:51:56.834Z,90.50
2018-09-02T01:54:24.500Z,90.50
2018-09-02T01:56:52.133Z,90.60
2018-09-02T01:59:19.802Z,90.70
2018-09-02T02:01:47.590Z,90.90
2018-09-02T02:04:15.417Z,90.80
2018-09-02T02:06:43.054Z,90.90
2018-09-02T02:09:11.765Z,91.10
2018-09-02T02:11:39.458Z,91.40
2018-09-02T02:14:07.822Z,91.30
2018-09-02T02:16:35.567Z,91.10
2018-09-02T02:19:03.958Z,91.20
2018-09-02T02:21:31.582Z,91.20
2018-09-02T02:26:34.949Z,91.20
2018-09-02T02:29:02.659Z,91.30
2018-09-02T02:31:30.285Z,91.30
2018-09-02T02:33:58.002Z,91.50
2018-09-02T02:36:25.693Z,91.50
2018-09-02T02:38:53.338Z,91.70
2018-09-02T02:41:21.007Z,91.90
2018-09-02T02:43:48.838Z,92.00
2018-09-02T02:46:16.506Z,92.10
2018-09-02T02:48:44.217Z,92.20
2018-09-02T02:51:11.866Z,92.10
2018-09-02T02:53:39.845Z,92.40
2018-09-02T02:56:07.502Z,92.30
2018-09-02T02:58:35.157Z,92.40
2018-09-02T03:01:02.874Z,92.40
2018-09-02T03:03:30.510Z,92.50
2018-09-02T03:05:58.178Z,92.50
2018-09-02T03:08:25.822Z,92.50
2018-09-02T03:10:53.626Z,92.40
2018-09-02T03:13:21.193Z,92.60
2018-09-02T03:15:48.945Z,92.40
2018-09-02T03:18:16.682Z,92.40
2018-09-02T03:20:44.345Z,92.50
2018-09-02T03:23:11.985Z,92.70
2018-09-02T03:25:42.495Z,92.70
2018-09-02T03:28:10.145Z,92.90
2018-09-02T03:30:37.817Z,93.00
2018-09-02T03:33:05.494Z,93.00
2018-09-02T03:35:33.245Z,93.10
2018-09-02T03:38:01.442Z,93.10
2018-09-02T03:40:29.115Z,93.80
2018-09-02T03:42:56.749Z,94.10
2018-09-02T03:45:24.446Z,94.00
2018-09-02T03:47:52.221Z,94.10
2018-09-02T03:50:19.881Z,94.00
2018-09-02T03:52:47.538Z,94.20
2018-09-02T03:55:15.309Z,94.30
2018-09-02T03:57:43.161Z,94.30
2018-09-02T04:00:10.841Z,94.40
2018-09-02T04:02:38.490Z,94.30
2018-09-02T04:05:06.202Z,94.30
2018-09-02T04:07:33.858Z,94.30
2018-09-02T04:10:01.952Z,94.30
2018-09-02T04:12:29.637Z,94.50
2018-09-02T04:14:57.289Z,94.60
2018-09-02T04:17:25.362Z,94.40
2018-09-02T04:19:53.009Z,94.70
2018-09-02T04:22:20.659Z,94.40
2018-09-02T04:24:48.354Z,94.30
2018-09-02T04:27:16.247Z,94.60
2018-09-02T04:29:44.170Z,94.70
2018-09-02T04:32:11.849Z,94.70
2018-09-02T04:34:39.553Z,94.90
2018-09-02T04:37:07.510Z,94.90
2018-09-02T04:39:35.155Z,94.90
2018-09-02T04:42:02.854Z,94.90
2018-09-02T04:44:30.510Z,94.80
2018-09-02T04:46:58.221Z,94.80
2018-09-02T04:49:26.233Z,95.00
2018-09-02T04:51:54.049Z,95.00
2018-09-02T04:54:21.801Z,95.20
2018-09-02T04:56:49.433Z,95.20
2018-09-02T04:59:17.057Z,95.20
2018-09-02T05:01:44.727Z,95.30
2018-09-02T05:04:12.406Z,95.40
2018-09-02T05:06:41.514Z,95.30
2018-09-02T05:09:09.258Z,95.50
2018-09-02T05:11:37.154Z,95.30
2018-09-02T05:14:04.963Z,95.30
2018-09-02T05:16:32.782Z,95.30
2018-09-02T05:19:00.606Z,95.30
2018-09-02T05:21:28.395Z,95.30
2018-09-02T05:23:56.249Z,95.30
2018-09-02T05:26:24.057Z,95.20
2018-09-02T05:28:51.809Z,95.30
2018-09-02T05:31:19.502Z,95.20
2018-09-02T05:33:47.174Z,95.20
2018-09-02T05:36:14.871Z,95.20
2018-09-02T05:38:42.550Z,95.20
2018-09-02T05:41:10.261Z,95.30
2018-09-02T05:43:37.928Z,94.80
2018-09-02T05:46:05.766Z,94.50
2018-09-02T05:48:33.474Z,94.30
2018-09-02T05:51:01.170Z,94.20
2018-09-02T05:53:28.985Z,94.10
2018-09-02T05:55:56.857Z,94.20
2018-09-02T05:58:25.000Z,94.00
2018-09-02T06:00:52.672Z,94.20
2018-09-02T06:03:20.356Z,93.90
2018-09-02T06:05:48.090Z,93.60
2018-09-02T06:08:15.783Z,93.60
2018-09-02T06:10:43.534Z,93.30
2018-09-02T06:13:11.222Z,93.40
2018-09-02T06:15:39.094Z,93.40
2018-09-02T06:18:06.799Z,93.50
2018-09-02T06:20:34.450Z,93.40
2018-09-02T06:23:02.125Z,93.30
2018-09-02T06:25:30.025Z,93.40
2018-09-02T06:27:59.807Z,93.20
2018-09-02T06:30:27.946Z,93.20
2018-09-02T06:32:55.825Z,93.20
2018-09-02T06:35:23.426Z,92.90
2018-09-02T06:37:51.201Z,92.70
2018-09-02T06:40:18.965Z,92.60
2018-09-02T06:42:46.989Z,92.70
2018-09-02T06:45:14.938Z,92.30
2018-09-02T06:47:42.673Z,92.30
2018-09-02T06:50:10.338Z,92.00
2018-09-02T06:52:38.070Z,91.90
2018-09-02T06:55:05.806Z,92.00
2018-09-02T06:57:33.502Z,92.00
2018-09-02T07:00:01.181Z,92.00
2018-09-02T07:02:28.865Z,92.20
2018-09-02T07:04:57.069Z,91.70
2018-09-02T07:07:24.854Z,91.80
2018-09-02T07:09:53.127Z,91.60
2018-09-02T07:12:20.844Z,91.60
2018-09-02T07:14:48.629Z,91.40
2018-09-02T07:17:16.391Z,91.50
2018-09-02T07:19:44.054Z,91.50
2018-09-02T07:22:11.706Z,91.40
2018-09-02T07:24:39.406Z,91.30
2018-09-02T07:27:07.069Z,91.20
2018-09-02T07:29:35.166Z,91.10
2018-09-02T07:32:03.137Z,90.60
2018-09-02T07:34:30.841Z,90.70
2018-09-02T07:36:58.501Z,90.90
2018-09-02T07:39:26.306Z,91.10
2018-09-02T07:41:53.994Z,91.20
2018-09-02T07:44:21.674Z,91.20
2018-09-02T07:46:49.326Z,91.30
2018-09-02T07:49:17.149Z,91.20
2018-09-02T07:51:44.826Z,90.90
2018-09-02T07:54:12.527Z,91.20
2018-09-02T07:56:40.226Z,91.20
2018-09-02T07:59:07.941Z,90.90
2018-09-02T08:01:35.593Z,90.80
2018-09-02T08:04:03.414Z,90.70
2018-09-02T08:06:31.134Z,90.50
2018-09-02T08:08:58.822Z,90.50
2018-09-02T08:11:26.649Z,90.40
2018-09-02T08:13:54.337Z,90.50
2018-09-02T08:16:22.025Z,90.40
2018-09-02T08:18:49.722Z,90.00
2018-09-02T08:21:17.601Z,90.10
2018-09-02T08:23:45.569Z,90.10
2018-09-02T08:26:13.270Z,90.20
2018-09-02T08:28:41.022Z,90.20
2018-09-02T08:31:08.766Z,89.80
2018-09-02T08:33:36.462Z,88.10
2018-09-02T08:36:04.298Z,87.90
2018-09-02T08:38:32.950Z,87.60
2018-09-02T08:41:00.609Z,87.70
2018-09-02T08:43:28.758Z,87.50
2018-09-02T08:45:56.441Z,87.00
2018-09-02T08:48:24.150Z,86.30
2018-09-02T08:50:51.893Z,86.90
2018-09-02T08:53:19.544Z,86.90
2018-09-02T08:55:47.249Z,86.10
2018-09-02T08:58:14.905Z,86.00
2018-09-02T09:00:42.618Z,84.10
2018-09-02T09:03:10.358Z,83.40
2018-09-02T09:05:38.033Z,83.30
2018-09-02T09:08:06.088Z,82.60
2018-09-02T09:10:35.010Z,81.90
2018-09-02T09:13:02.677Z,81.50
2018-09-02T09:15:30.397Z,82.60
2018-09-02T09:17:58.102Z,81.90
2018-09-02T09:20:25.978Z,81.40
2018-09-02T09:22:53.660Z,81.20
2018-09-02T09:25:21.387Z,80.30
2018-09-02T09:27:49.414Z,79.80
2018-09-02T09:30:17.150Z,78.70
2018-09-02T09:32:44.822Z,78.50
2018-09-02T09:35:12.493Z,78.00
2018-09-02T09:37:40.217Z,77.20
2018-09-02T09:40:07.961Z,77.10
2018-09-02T09:42:35.632Z,77.50
2018-09-02T09:45:03.432Z,76.40
2018-09-02T09:47:31.137Z,76.90
2018-09-02T09:49:58.833Z,75.10
2018-09-02T09:52:26.565Z,75.80
2018-09-02T09:54:54.250Z,75.60
2018-09-02T09:57:21.967Z,75.00
2018-09-02T09:59:49.898Z,74.10
2018-09-02T10:02:17.563Z,73.00
2018-09-02T10:04:48.258Z,71.90
2018-09-02T10:07:15.922Z,71.90
2018-09-02T10:09:43.633Z,71.90
2018-09-02T10:12:11.366Z,71.10
2018-09-02T10:14:40.329Z,71.00
2018-09-02T10:17:08.223Z,70.30
2018-09-02T10:19:35.906Z,70.10
2018-09-02T10:22:03.618Z,67.80
2018-09-02T10:24:31.314Z,68.20
2018-09-02T10:26:59.005Z,67.20
2018-09-02T10:29:27.094Z,67.70
2018-09-02T10:31:54.825Z,67.70
2018-09-02T10:34:22.779Z,67.60
2018-09-02T10:36:50.521Z,66.90
2018-09-02T10:39:18.457Z,66.10
2018-09-02T10:41:46.229Z,65.60
2018-09-02T10:44:13.910Z,65.40
2018-09-02T10:46:41.682Z,64.70
2018-09-02T10:49:09.582Z,65.00
2018-09-02T10:51:37.438Z,64.00
2018-09-02T10:54:05.774Z,63.10
2018-09-02T10:56:33.477Z,62.90
2018-09-02T10:59:01.141Z,62.00
2018-09-02T11:01:29.166Z,60.60
2018-09-02T11:03:56.830Z,62.30
2018-09-02T11:06:24.530Z,61.60
2018-09-02T11:08:52.254Z,60.60
2018-09-02T11:11:20.053Z,60.40
2018-09-02T11:13:47.827Z,60.30
2018-09-02T11:16:15.893Z,60.40
2018-09-02T11:18:43.575Z,61.70
2018-09-02T11:21:11.595Z,60.40
2018-09-02T11:23:39.278Z,58.50
2018-09-02T11:26:07.023Z,58.60
2018-09-02T11:28:34.754Z,58.30
2018-09-02T11:31:02.453Z,58.40
2018-09-02T11:33:30.802Z,58.60
2018-09-02T11:35:58.493Z,57.90
2018-09-02T11:38:26.214Z,58.00
2018-09-02T11:40:53.917Z,58.30
2018-09-02T11:43:21.603Z,58.10
2018-09-02T11:45:49.321Z,58.30
2018-09-02T11:48:17.570Z,57.20
2018-09-02T11:50:45.393Z,58.00
2018-09-02T11:53:13.083Z,58.20
2018-09-02T11:55:40.782Z,58.20
2018-09-02T11:58:08.454Z,58.20
2018-09-02T12:00:36.333Z,58.40
2018-09-02T12:03:04.010Z,57.60
2018-09-02T12:05:31.749Z,58.50
2018-09-02T12:07:59.455Z,57.50
2018-09-02T12:10:27.141Z,57.40
2018-09-02T12:12:54.934Z,56.80
2018-09-02T12:15:22.693Z,56.10
2018-09-02T12:17:50.486Z,57.00
2018-09-02T12:20:18.150Z,56.50
2018-09-02T12:22:45.830Z,56.60
2018-09-02T12:25:13.605Z,56.50
2018-09-02T12:27:43.497Z,57.30
2018-09-02T12:30:11.152Z,57.70
2018-09-02T12:32:39.496Z,58.00
2018-09-02T12:35:07.178Z,57.60
2018-09-02T12:37:35.903Z,57.70
2018-09-02T12:40:03.658Z,57.70
2018-09-02T12:42:31.421Z,57.60
2018-09-02T12:44:59.346Z,57.30
2018-09-02T12:47:27.059Z,57.00
2018-09-02T12:49:54.722Z,56.70
2018-09-02T12:52:22.417Z,57.70
2018-09-02T12:54:50.376Z,57.50
2018-09-02T12:57:17.822Z,58.00
2018-09-02T12:59:45.493Z,58.30
2018-09-02T13:02:13.378Z,58.50
2018-09-02T13:04:41.099Z,59.00
2018-09-02T13:07:30.312Z,58.80
2018-09-02T13:09:57.981Z,58.80
2018-09-02T13:12:25.704Z,58.70
2018-09-02T13:14:53.913Z,59.20
2018-09-02T13:17:22.229Z,59.80
2018-09-02T13:19:49.907Z,60.20
2018-09-02T13:22:17.686Z,59.90
2018-09-02T13:24:45.436Z,60.30
2018-09-02T13:27:13.121Z,59.90
2018-09-02T13:29:40.959Z,59.50
2018-09-02T13:32:08.621Z,58.80
2018-09-02T13:34:36.311Z,58.80
2018-09-02T13:37:04.070Z,58.90
2018-09-02T13:39:31.754Z,59.00
2018-09-02T13:41:59.435Z,58.70
2018-09-02T13:44:27.990Z,58.80
2018-09-02T13:46:55.738Z,58.20
2018-09-02T13:49:23.485Z,58.80
2018-09-02T13:51:51.187Z,57.60
2018-09-02T13:54:18.912Z,57.70
2018-09-02T13:56:46.566Z,56.60
2018-09-02T13:59:14.396Z,55.00
2018-09-02T14:01:42.130Z,54.10
2018-09-02T14:04:09.826Z,53.40
2018-09-02T14:06:39.162Z,53.10
2018-09-02T14:09:07.429Z,53.70
2018-09-02T14:11:35.518Z,54.50
2018-09-02T14:14:03.717Z,55.00
2018-09-02T14:16:31.381Z,55.60
2018-09-02T14:18:59.923Z,55.60
2018-09-02T14:21:27.593Z,55.40
2018-09-02T14:23:55.263Z,54.30
2018-09-02T14:26:26.072Z,54.60
2018-09-02T14:28:53.757Z,53.80
2018-09-02T14:31:22.281Z,53.80
2018-09-02T14:33:49.964Z,53.30
2018-09-02T14:36:18.824Z,53.10
2018-09-02T14:38:46.529Z,53.10
2018-09-02T14:41:14.449Z,53.70
2018-09-02T14:43:42.180Z,53.80
2018-09-02T14:46:09.845Z,54.40
2018-09-02T14:48:37.574Z,54.90
2018-09-02T14:51:05.259Z,55.60
2018-09-02T14:53:32.989Z,55.70
2018-09-02T14:56:01.521Z,56.00
2018-09-02T14:58:29.269Z,56.50
2018-09-02T15:00:57.081Z,54.30
2018-09-02T15:03:24.758Z,52.90
2018-09-02T15:05:55.053Z,51.70
2018-09-02T15:08:22.783Z,47.10
2018-09-02T15:10:50.606Z,42.30
2018-09-02T15:13:18.289Z,36.40
2018-09-02T15:15:47.394Z,34.40
2018-09-02T15:18:15.053Z,34.60
2018-09-02T15:20:42.753Z,36.60
2018-09-02T15:23:10.422Z,37.80
2018-09-02T15:25:38.209Z,41.20
2018-09-02T15:28:05.964Z,44.20
2018-09-02T15:30:33.649Z,46.40
2018-09-02T15:33:01.385Z,47.40
2018-09-02T15:35:30.251Z,48.50
2018-09-02T15:37:57.973Z,47.90
2018-09-02T15:40:25.766Z,48.50
2018-09-02T15:42:53.582Z,48.30
2018-09-02T15:45:22.047Z,48.70
2018-09-02T15:47:49.786Z,49.90
2018-09-02T15:50:17.963Z,50.90
2018-09-02T15:52:45.843Z,50.40
2018-09-02T15:55:13.506Z,51.90
2018-09-02T15:57:41.602Z,52.10
2018-09-02T16:00:09.986Z,52.60
2018-09-02T16:02:37.925Z,52.50
2018-09-02T16:05:05.702Z,52.80
2018-09-02T16:07:33.437Z,51.60
2018-09-02T16:10:02.186Z,52.40
2018-09-02T16:12:53.208Z,52.80
2018-09-02T16:15:45.859Z,53.50
2018-09-02T16:18:34.557Z,54.40
2018-09-02T16:21:02.229Z,54.30
2018-09-02T16:23:29.906Z,54.20
2018-09-02T16:25:57.550Z,54.30
2018-09-02T16:28:25.209Z,55.30
2018-09-02T16:30:52.849Z,55.00
2018-09-02T16:33:20.525Z,54.60
2018-09-02T16:35:48.169Z,53.70
2018-09-02T16:38:16.231Z,53.70
2018-09-02T16:40:43.850Z,53.30
2018-09-02T16:43:11.777Z,52.40
2018-09-02T16:45:39.470Z,48.80
2018-09-02T16:48:07.491Z,47.10
2018-09-02T16:50:35.417Z,47.50
2018-09-02T16:53:03.093Z,48.90
2018-09-02T16:55:30.940Z,50.60
2018-09-02T16:57:58.618Z,50.60
2018-09-02T17:00:26.290Z,51.00
2018-09-02T17:02:54.277Z,51.60
2018-09-02T17:05:22.965Z,52.70
2018-09-02T17:07:51.569Z,52.20
2018-09-02T17:10:20.941Z,52.70
2018-09-02T17:12:48.853Z,53.10
2018-09-02T17:15:16.508Z,53.40
2018-09-02T17:17:44.609Z,53.20
2018-09-02T17:20:16.286Z,53.70
2018-09-02T17:22:43.934Z,53.80
2018-09-02T17:25:11.792Z,53.80
2018-09-02T17:27:39.434Z,53.50
2018-09-02T17:30:07.177Z,54.00
2018-09-02T17:32:35.198Z,54.10
2018-09-02T17:35:02.893Z,53.90
2018-09-02T17:37:30.518Z,54.00
2018-09-02T17:39:58.514Z,54.50
2018-09-02T17:42:26.194Z,54.30
2018-09-02T17:44:53.841Z,54.20
2018-09-02T17:47:21.575Z,54.30
2018-09-02T17:49:49.237Z,54.50
2018-09-02T17:52:16.891Z,54.90
2018-09-02T17:54:44.613Z,54.80
2018-09-02T17:57:12.333Z,54.90
2018-09-02T17:59:40.005Z,55.10
2018-09-02T18:02:07.982Z,55.60
2018-09-02T18:04:35.617Z,55.60
2018-09-02T18:07:03.370Z,56.30
2018-09-02T18:09:31.167Z,56.10
2018-09-02T18:11:59.066Z,56.40
2018-09-02T18:14:26.880Z,56.90
2018-09-02T18:16:54.664Z,56.90
2018-09-02T18:19:22.361Z,57.10
2018-09-02T18:21:50.090Z,57.30
2018-09-02T18:24:17.736Z,57.40
2018-09-02T18:26:45.399Z,57.40
2018-09-02T18:29:13.030Z,57.70
2018-09-02T18:31:42.055Z,57.90
2018-09-02T18:34:11.596Z,58.10
2018-09-02T18:36:41.458Z,58.50
2018-09-02T18:39:11.709Z,58.70
2018-09-02T18:41:40.469Z,58.60
2018-09-02T18:44:11.881Z,58.60
2018-09-02T18:46:39.747Z,58.80
2018-09-02T18:49:07.620Z,59.30
2018-09-02T18:51:35.653Z,59.70
2018-09-02T18:54:03.346Z,59.90
2018-09-02T18:56:31.130Z,60.10
2018-09-02T18:58:58.870Z,60.40
2018-09-02T19:01:26.760Z,60.40
2018-09-02T19:03:54.409Z,60.80
2018-09-02T19:06:22.109Z,61.00
2018-09-02T19:08:49.867Z,61.20
2018-09-02T19:11:17.518Z,61.50
2018-09-02T19:13:45.282Z,62.30
2018-09-02T19:16:13.042Z,62.30
2018-09-02T19:18:41.368Z,62.60
2018-09-02T19:21:09.422Z,62.70
2018-09-02T19:23:43.652Z,62.20
2018-09-02T19:26:12.292Z,62.00
2018-09-02T19:28:40.031Z,62.30
2018-09-02T19:31:07.771Z,62.60
2018-09-02T19:33:36.019Z,63.10
2018-09-02T19:36:03.726Z,63.50
2018-09-02T19:38:31.526Z,63.60
2018-09-02T19:40:59.189Z,63.80
2018-09-02T19:43:26.843Z,64.20
2018-09-02T19:45:54.566Z,63.90
2018-09-02T19:48:25.141Z,64.20
2018-09-02T19:50:56.932Z,64.20
2018-09-02T19:53:27.208Z,64.10
2018-09-02T19:55:59.024Z,64.00
2018-09-02T19:58:29.683Z,64.50
2018-09-02T20:01:00.655Z,64.50
2018-09-02T20:03:30.733Z,64.60
2018-09-02T20:06:01.317Z,64.90
2018-09-02T20:08:32.361Z,64.70
2018-09-02T20:11:05.255Z,64.90
2018-09-02T20:13:37.516Z,65.00
2018-09-02T20:16:11.497Z,65.30
2018-09-02T20:18:43.281Z,65.40
2018-09-02T20:21:15.683Z,65.60
2018-09-02T20:23:46.114Z,66.00
2018-09-02T20:26:17.490Z,66.20
2018-09-02T20:28:49.469Z,66.10
2018-09-02T20:31:21.895Z,66.10
2018-09-02T20:33:53.786Z,66.30
2018-09-02T20:36:24.718Z,66.30
2018-09-02T20:38:55.119Z,66.40
2018-09-02T20:41:27.662Z,66.70
2018-09-02T20:43:59.859Z,67.40
2018-09-02T20:46:31.690Z,67.90
2018-09-02T20:49:03.588Z,68.30
2018-09-02T20:51:34.179Z,69.70
2018-09-02T20:54:01.802Z,69.80
2018-09-02T20:56:29.492Z,70.20
2018-09-02T20:58:57.138Z,70.10
2018-09-02T21:01:24.774Z,69.70
2018-09-02T21:03:52.882Z,69.50
2018-09-02T21:06:20.571Z,69.50
2018-09-02T21:08:48.225Z,69.50
2018-09-02T21:11:15.866Z,69.80
2018-09-02T21:13:43.535Z,69.60
2018-09-02T21:16:11.181Z,69.50
2018-09-02T21:18:38.879Z,69.80
2018-09-02T21:21:06.789Z,69.70
2018-09-02T21:23:34.485Z,69.60
2018-09-02T21:26:02.208Z,69.80
2018-09-02T21:28:29.921Z,69.60
2018-09-02T21:30:57.585Z,69.60
2018-09-02T21:33:25.245Z,69.50
2018-09-02T21:35:52.969Z,69.60
2018-09-02T21:38:20.658Z,69.50
2018-09-02T21:40:48.339Z,69.30
2018-09-02T21:43:16.062Z,69.60
2018-09-02T21:45:43.743Z,70.00
2018-09-02T21:48:11.406Z,69.90
2018-09-02T21:50:39.221Z,70.30
2018-09-02T21:53:07.024Z,70.00
2018-09-02T21:55:34.677Z,70.20
2018-09-02T21:58:02.342Z,70.50
2018-09-02T22:00:30.158Z,70.30
2018-09-02T22:02:57.836Z,70.40
2018-09-02T22:05:25.547Z,70.60
2018-09-02T22:07:53.263Z,70.80
2018-09-02T22:10:20.928Z,71.10
2018-09-02T22:12:49.762Z,71.10
2018-09-02T22:15:17.898Z,71.60
2018-09-02T22:17:45.652Z,71.70
2018-09-02T22:20:13.301Z,71.80
2018-09-02T22:22:40.978Z,72.50
2018-09-02T22:25:09.292Z,73.10
2018-09-02T22:27:37.320Z,73.30
2018-09-02T22:30:05.730Z,73.20
2018-09-02T22:32:33.586Z,73.50
2018-09-02T22:35:01.665Z,73.90
2018-09-02T22:37:29.337Z,74.00
2018-09-02T22:39:57.009Z,74.00
2018-09-02T22:42:25.324Z,74.70
2018-09-02T22:44:53.002Z,74.90
2018-09-02T22:47:20.671Z,75.30
2018-09-02T22:49:48.362Z,75.50
2018-09-02T22:52:16.956Z,76.20
2018-09-02T22:54:44.658Z,76.60
2018-09-02T22:57:12.426Z,76.80
2018-09-02T22:59:40.949Z,77.20
2018-09-02T23:02:08.918Z,78.00
2018-09-02T23:04:36.705Z,77.90
2018-09-02T23:07:04.353Z,77.60
2018-09-02T23:09:32.022Z,78.00
2018-09-02T23:11:59.757Z,78.00
2018-09-02T23:14:27.425Z,78.60
2018-09-02T23:16:55.082Z,79.00
2018-09-02T23:19:22.887Z,79.60
2018-09-02T23:21:50.558Z,80.40
2018-09-02T23:24:18.242Z,80.80
2018-09-02T23:26:47.218Z,81.20
2018-09-02T23:29:15.018Z,81.60
2018-09-02T23:31:42.664Z,82.10
2018-09-02T23:34:10.370Z,82.40
2018-09-02T23:36:38.085Z,82.70
2018-09-02T23:39:07.943Z,83.50
2018-09-02T23:41:35.618Z,84.10
2018-09-02T23:44:03.638Z,84.10
2018-09-02T23:46:31.457Z,84.40
2018-09-02T23:48:59.120Z,84.60
2018-09-02T23:51:26.805Z,85.10
2018-09-02T23:53:54.469Z,85.70
2018-09-02T23:56:22.110Z,85.80
2018-09-02T23:58:49.781Z,86.00
